createdAt,value
2023-02-07T00:00:58.933Z,12.73
2023-02-07T00:03:26.567Z,13.45
2023-02-07T00:05:54.145Z,12.45
2023-02-07T00:08:21.705Z,12.75
2023-02-07T00:10:49.249Z,12.90
2023-02-07T00:13:16.803Z,13.45
2023-02-07T00:15:44.335Z,12.65
2023-02-07T00:18:11.881Z,13.10
2023-02-07T00:20:39.432Z,12.82
2023-02-07T00:23:06.967Z,13.30
2023-02-07T00:25:35.071Z,12.35
2023-02-07T00:28:02.761Z,13.85
2023-02-07T00:30:30.461Z,13.32
2023-02-07T00:32:58.710Z,13.15
2023-02-07T00:35:26.337Z,13.60
2023-02-07T00:37:53.956Z,13.00
2023-02-07T00:40:21.593Z,13.13
2023-02-07T00:42:49.180Z,13.45
2023-02-07T00:45:16.787Z,11.57
2023-02-07T00:47:44.397Z,11.75
2023-02-07T00:50:11.931Z,12.27
2023-02-07T00:52:39.506Z,12.60
2023-02-07T00:55:08.419Z,12.68
2023-02-07T00:57:35.994Z,12.38
2023-02-07T01:00:04.103Z,12.57
2023-02-07T01:02:31.665Z,12.07
2023-02-07T01:05:00.148Z,11.10
2023-02-07T01:07:27.773Z,11.75
2023-02-07T01:09:55.356Z,11.77
2023-02-07T01:12:22.995Z,11.57
2023-02-07T01:14:50.561Z,11.57
2023-02-07T01:17:19.576Z,11.50
2023-02-07T01:19:47.145Z,11.25
2023-02-07T01:22:14.691Z,11.80
2023-02-07T01:24:42.350Z,11.32
2023-02-07T01:27:11.483Z,11.30
2023-02-07T01:29:39.097Z,11.80
2023-02-07T01:32:06.647Z,11.05
2023-02-07T01:34:34.229Z,11.18
2023-02-07T01:37:01.847Z,10.70
2023-02-07T01:39:30.206Z,10.98
2023-02-07T01:41:57.785Z,11.15
2023-02-07T01:44:25.311Z,11.18
2023-02-07T01:46:54.236Z,10.27
2023-02-07T01:49:24.617Z,10.48
2023-02-07T01:51:55.410Z,12.10
2023-02-07T01:54:24.427Z,11.35
2023-02-07T01:56:54.933Z,11.57
2023-02-07T01:59:22.883Z,11.35
2023-02-07T02:01:50.756Z,10.63
2023-02-07T02:04:18.696Z,10.57
2023-02-07T02:06:46.589Z,10.07
2023-02-07T02:09:15.425Z,10.48
2023-02-07T02:12:01.290Z,11.07
2023-02-07T02:14:43.798Z,11.10
2023-02-07T02:17:11.347Z,11.15
2023-02-07T02:19:57.507Z,11.20
2023-02-07T02:22:34.206Z,11.02
2023-02-07T02:25:20.287Z,11.55
2023-02-07T02:27:47.953Z,11.23
2023-02-07T02:30:15.517Z,10.82
2023-02-07T02:32:51.954Z,11.80
2023-02-07T02:35:31.582Z,11.05
2023-02-07T02:38:04.824Z,11.07
2023-02-07T02:40:53.203Z,11.32
2023-02-07T02:43:36.305Z,11.23
2023-02-07T02:46:09.988Z,10.50
2023-02-07T02:48:38.365Z,11.32
2023-02-07T02:51:06.679Z,10.57
2023-02-07T02:53:34.319Z,11.45
2023-02-07T02:56:09.045Z,11.38
2023-02-07T02:58:46.011Z,11.80
2023-02-07T03:01:19.165Z,11.25
2023-02-07T03:04:13.258Z,11.23
2023-02-07T03:06:40.817Z,10.13
2023-02-07T03:09:20.313Z,11.27
2023-02-07T03:12:00.160Z,10.45
2023-02-07T03:14:34.660Z,10.73
2023-02-07T03:17:08.201Z,11.02
2023-02-07T03:19:51.120Z,11.05
2023-02-07T03:22:20.355Z,10.73
2023-02-07T03:24:53.420Z,10.40
2023-02-07T03:27:23.235Z,11.25
2023-02-07T03:29:57.623Z,10.75
2023-02-07T03:32:31.285Z,10.32
2023-02-07T03:35:15.207Z,10.82
2023-02-07T03:37:48.732Z,10.93
2023-02-07T03:40:16.608Z,10.68
2023-02-07T03:42:47.179Z,10.82
2023-02-07T03:45:16.862Z,10.85
2023-02-07T03:47:44.496Z,10.82
2023-02-07T03:50:12.197Z,11.23
2023-02-07T03:52:39.754Z,9.90
2023-02-07T03:55:07.676Z,10.57
2023-02-07T03:57:35.387Z,10.30
2023-02-07T04:00:03.047Z,10.25
2023-02-07T04:02:40.092Z,9.75
2023-02-07T04:05:07.715Z,11.07
2023-02-07T04:07:35.408Z,9.95
2023-02-07T04:10:03.369Z,10.65
2023-02-07T04:12:32.907Z,9.63
2023-02-07T04:15:00.907Z,9.80
2023-02-07T04:17:31.160Z,10.30
2023-02-07T04:20:01.468Z,9.57
2023-02-07T04:22:29.785Z,10.02
2023-02-07T04:24:57.419Z,9.70
2023-02-07T04:27:25.270Z,9.68
2023-02-07T04:29:52.876Z,10.63
2023-02-07T04:32:20.460Z,10.40
2023-02-07T04:34:48.094Z,9.98
2023-02-07T04:37:15.766Z,10.18
2023-02-07T04:39:43.419Z,10.55
2023-02-07T04:42:10.999Z,9.68
2023-02-07T04:44:38.567Z,10.60
2023-02-07T04:47:06.121Z,9.63
2023-02-07T04:49:34.656Z,10.13
2023-02-07T04:52:02.497Z,10.38
2023-02-07T04:54:30.077Z,10.38
2023-02-07T04:56:57.633Z,10.85
2023-02-07T04:59:25.233Z,10.70
2023-02-07T05:01:52.845Z,10.48
2023-02-07T05:04:20.394Z,10.45
2023-02-07T05:06:47.996Z,8.95
2023-02-07T05:09:15.611Z,11.00
2023-02-07T05:11:43.168Z,10.13
2023-02-07T05:14:10.785Z,9.90
2023-02-07T05:16:38.383Z,10.40
2023-02-07T05:19:05.956Z,10.68
2023-02-07T05:21:33.579Z,10.32
2023-02-07T05:24:01.135Z,11.25
2023-02-07T05:26:28.768Z,10.32
2023-02-07T05:28:56.292Z,10.98
2023-02-07T05:31:43.902Z,10.70
2023-02-07T05:34:11.567Z,10.32
2023-02-07T05:36:39.148Z,10.73
2023-02-07T05:39:06.921Z,11.02
2023-02-07T05:41:34.450Z,11.13
2023-02-07T05:44:02.471Z,10.18
2023-02-07T05:46:30.059Z,10.48
2023-02-07T05:48:57.576Z,9.40
2023-02-07T05:51:25.186Z,10.80
2023-02-07T05:53:52.757Z,10.15
2023-02-07T05:56:20.333Z,10.65
2023-02-07T05:58:47.891Z,10.35
2023-02-07T06:01:15.432Z,9.68
2023-02-07T06:03:43.154Z,10.70
2023-02-07T06:06:11.046Z,10.27
2023-02-07T06:08:38.594Z,9.85
2023-02-07T06:11:06.204Z,9.90
2023-02-07T06:13:33.755Z,10.27
2023-02-07T06:16:01.372Z,10.60
2023-02-07T06:18:28.940Z,10.68
2023-02-07T06:20:56.482Z,10.73
2023-02-07T06:23:24.050Z,10.00
2023-02-07T06:25:51.641Z,9.75
2023-02-07T06:28:19.287Z,10.60
2023-02-07T06:30:46.964Z,10.20
2023-02-07T06:33:14.563Z,10.65
2023-02-07T06:35:47.058Z,9.20
2023-02-07T06:38:16.585Z,8.98
2023-02-07T06:40:45.383Z,9.25
2023-02-07T06:43:13.174Z,9.48
2023-02-07T06:45:40.979Z,9.55
2023-02-07T06:48:10.457Z,10.25
2023-02-07T06:50:38.297Z,9.50
2023-02-07T06:53:05.909Z,9.95
2023-02-07T06:55:36.679Z,10.00
2023-02-07T06:58:04.675Z,9.27
2023-02-07T07:00:32.771Z,9.68
2023-02-07T07:03:00.483Z,9.23
2023-02-07T07:05:29.458Z,9.73
2023-02-07T07:07:57.552Z,9.95
2023-02-07T07:10:25.269Z,9.60
2023-02-07T07:12:52.840Z,9.48
2023-02-07T07:15:20.568Z,9.48
2023-02-07T07:17:48.183Z,9.18
2023-02-07T07:20:15.908Z,10.70
2023-02-07T07:22:43.526Z,9.50
2023-02-07T07:25:11.172Z,9.30
2023-02-07T07:27:38.749Z,9.30
2023-02-07T07:30:10.200Z,8.73
2023-02-07T07:32:38.262Z,9.60
2023-02-07T07:35:06.262Z,9.52
2023-02-07T07:37:33.825Z,9.55
2023-02-07T07:40:01.435Z,9.88
2023-02-07T07:42:29.074Z,10.18
2023-02-07T07:45:10.059Z,9.27
2023-02-07T07:47:37.665Z,10.05
2023-02-07T07:50:06.704Z,9.10
2023-02-07T07:52:34.904Z,9.35
2023-02-07T07:55:02.448Z,9.75
2023-02-07T07:57:30.164Z,9.52
2023-02-07T07:59:58.138Z,9.40
2023-02-07T08:02:25.745Z,9.90
2023-02-07T08:04:53.322Z,9.57
2023-02-07T08:07:21.017Z,9.65
2023-02-07T08:09:48.874Z,9.88
2023-02-07T08:12:16.445Z,10.73
2023-02-07T08:14:43.996Z,9.52
2023-02-07T08:17:11.653Z,9.60
2023-02-07T08:19:39.456Z,9.43
2023-02-07T08:22:07.074Z,10.23
2023-02-07T08:24:35.917Z,9.50
2023-02-07T08:27:03.855Z,10.15
2023-02-07T08:29:31.526Z,11.05
2023-02-07T08:31:59.108Z,10.02
2023-02-07T08:34:28.770Z,10.20
2023-02-07T08:36:56.369Z,10.13
2023-02-07T08:39:24.103Z,10.30
2023-02-07T08:41:51.664Z,10.85
2023-02-07T08:44:19.224Z,10.65
2023-02-07T08:46:46.758Z,10.63
2023-02-07T08:49:14.439Z,11.20
2023-02-07T08:51:42.577Z,10.88
2023-02-07T08:54:10.139Z,11.10
2023-02-07T08:56:37.768Z,10.73
2023-02-07T08:59:05.362Z,11.10
2023-02-07T09:01:33.210Z,10.13
2023-02-07T09:04:00.757Z,10.65
2023-02-07T09:06:28.471Z,10.70
2023-02-07T09:08:56.076Z,10.65
2023-02-07T09:11:23.862Z,10.13
2023-02-07T09:13:51.557Z,11.02
2023-02-07T09:16:19.166Z,10.35
2023-02-07T09:18:46.780Z,10.85
2023-02-07T09:21:14.369Z,10.45
2023-02-07T09:23:41.970Z,10.75
2023-02-07T09:26:09.658Z,10.98
2023-02-07T09:28:37.797Z,12.02
2023-02-07T09:31:09.433Z,11.35
2023-02-07T09:36:04.857Z,11.18
2023-02-07T09:38:32.717Z,11.15
2023-02-07T09:41:00.407Z,11.48
2023-02-07T09:43:45.856Z,10.70
2023-02-07T09:46:18.031Z,10.95
2023-02-07T09:48:49.058Z,11.77
2023-02-07T09:51:18.898Z,11.35
2023-02-07T09:53:55.993Z,11.43
2023-02-07T09:56:25.359Z,11.57
2023-02-07T09:58:53.024Z,10.93
2023-02-07T10:01:22.813Z,10.75
2023-02-07T10:03:50.473Z,11.70
2023-02-07T10:06:22.487Z,11.80
2023-02-07T10:08:52.545Z,11.23
2023-02-07T10:11:25.793Z,11.95
2023-02-07T10:13:59.261Z,10.85
2023-02-07T10:16:29.744Z,11.18
2023-02-07T10:19:09.577Z,10.95
2023-02-07T10:21:47.614Z,12.05
2023-02-07T10:24:27.598Z,10.93
2023-02-07T10:26:58.441Z,10.82
2023-02-07T10:29:44.219Z,11.33
2023-02-07T10:32:16.614Z,11.27
2023-02-07T10:34:47.818Z,11.15
2023-02-07T10:37:23.441Z,11.27
2023-02-07T10:39:55.352Z,9.88
2023-02-07T10:42:23.930Z,9.95
2023-02-07T10:44:51.765Z,9.93
2023-02-07T10:47:19.816Z,10.70
2023-02-07T10:49:49.247Z,10.90
2023-02-07T10:52:35.767Z,10.07
2023-02-07T10:55:04.967Z,10.15
2023-02-07T10:57:32.832Z,9.55
2023-02-07T11:00:03.426Z,9.38
2023-02-07T11:02:34.800Z,9.13
2023-02-07T11:05:03.565Z,8.73
2023-02-07T11:07:42.662Z,8.85
2023-02-07T11:10:16.817Z,8.63
2023-02-07T11:12:54.020Z,9.02
2023-02-07T11:15:23.580Z,9.45
2023-02-07T11:17:52.937Z,8.90
2023-02-07T11:20:26.873Z,8.65
2023-02-07T11:22:55.242Z,8.65
2023-02-07T11:25:40.972Z,9.32
2023-02-07T11:28:15.028Z,8.48
2023-02-07T11:30:42.702Z,8.15
2023-02-07T11:33:19.202Z,9.20
2023-02-07T11:36:05.529Z,9.23
2023-02-07T11:38:37.321Z,8.57
2023-02-07T11:43:35.904Z,8.88
2023-02-07T11:46:12.495Z,8.65
2023-02-07T11:48:40.548Z,8.75
2023-02-07T11:51:09.376Z,8.23
2023-02-07T11:53:51.690Z,7.97
2023-02-07T11:56:24.785Z,8.70
2023-02-07T11:58:53.538Z,7.78
2023-02-07T12:01:26.670Z,8.10
2023-02-07T12:04:00.921Z,7.88
2023-02-07T12:06:40.141Z,7.57
2023-02-07T12:09:15.866Z,7.72
2023-02-07T12:11:43.865Z,7.45
2023-02-07T12:14:20.466Z,7.60
2023-02-07T12:16:54.778Z,6.63
2023-02-07T12:19:29.877Z,7.20
2023-02-07T12:22:11.300Z,6.95
2023-02-07T12:24:45.005Z,7.00
2023-02-07T12:27:15.550Z,6.95
2023-02-07T12:30:02.113Z,7.20
2023-02-07T12:32:31.238Z,7.10
2023-02-07T12:35:01.757Z,6.55
2023-02-07T12:37:34.623Z,6.45
2023-02-07T12:40:05.240Z,6.05
2023-02-07T12:42:39.904Z,6.35
2023-02-07T12:45:08.334Z,5.95
2023-02-07T12:47:44.504Z,5.80
2023-02-07T12:50:18.268Z,5.97
2023-02-07T12:53:05.487Z,6.22
2023-02-07T12:55:51.866Z,6.07
2023-02-07T12:58:38.381Z,5.93
2023-02-07T13:01:06.087Z,5.78
2023-02-07T13:03:53.389Z,5.60
2023-02-07T13:06:20.886Z,5.70
2023-02-07T13:09:03.496Z,5.43
2023-02-07T13:11:45.982Z,5.82
2023-02-07T13:14:45.726Z,5.70
2023-02-07T13:17:31.840Z,5.90
2023-02-07T13:20:18.161Z,6.28
2023-02-07T13:23:09.627Z,6.35
2023-02-07T13:25:39.700Z,6.28
2023-02-07T13:28:14.133Z,6.07
2023-02-07T13:30:42.214Z,6.53
2023-02-07T13:33:22.846Z,5.85
2023-02-07T13:35:50.503Z,6.45
2023-02-07T13:38:21.882Z,6.82
2023-02-07T13:40:55.511Z,6.30
2023-02-07T13:43:24.494Z,6.60
2023-02-07T13:46:01.781Z,7.28
2023-02-07T13:48:34.940Z,6.80
2023-02-07T13:51:14.792Z,7.47
2023-02-07T13:54:05.625Z,8.40
2023-02-07T13:56:52.934Z,7.60
2023-02-07T13:59:38.351Z,7.32
2023-02-07T14:02:22.680Z,8.02
2023-02-07T14:04:51.501Z,7.03
2023-02-07T14:07:25.860Z,8.18
2023-02-07T14:09:56.919Z,7.95
2023-02-07T14:12:27.232Z,8.23
2023-02-07T14:15:02.736Z,8.00
2023-02-07T14:17:30.827Z,7.53
2023-02-07T14:19:59.773Z,7.50
2023-02-07T14:22:29.340Z,7.97
2023-02-07T14:24:59.742Z,8.20
2023-02-07T14:27:34.560Z,8.13
2023-02-07T14:30:12.241Z,8.00
2023-02-07T14:32:41.716Z,8.90
2023-02-07T14:35:19.284Z,8.23
2023-02-07T14:37:53.822Z,8.88
2023-02-07T14:40:31.474Z,8.45
2023-02-07T14:42:59.002Z,8.32
2023-02-07T14:45:29.279Z,8.38
2023-02-07T14:47:56.977Z,8.48
2023-02-07T14:50:30.403Z,8.70
2023-02-07T14:53:00.461Z,9.13
2023-02-07T14:55:34.405Z,7.82
2023-02-07T14:58:08.552Z,7.93
2023-02-07T15:00:45.975Z,8.07
2023-02-07T15:03:15.213Z,7.63
2023-02-07T15:06:08.860Z,7.68
2023-02-07T15:08:37.746Z,7.97
2023-02-07T15:11:06.814Z,8.13
2023-02-07T15:13:47.797Z,7.60
2023-02-07T15:16:17.394Z,8.40
2023-02-07T15:18:48.146Z,8.63
2023-02-07T15:21:20.499Z,8.82
2023-02-07T15:23:58.085Z,8.52
2023-02-07T15:26:25.651Z,8.98
2023-02-07T15:29:00.456Z,8.98
2023-02-07T15:31:28.554Z,9.15
2023-02-07T15:34:00.816Z,9.93
2023-02-07T15:36:31.195Z,9.50
2023-02-07T15:39:00.139Z,10.23
2023-02-07T15:41:28.438Z,9.95
2023-02-07T15:43:56.132Z,10.13
2023-02-07T15:46:23.704Z,11.50
2023-02-07T15:49:04.107Z,11.30
2023-02-07T15:51:48.780Z,10.45
2023-02-07T15:54:17.760Z,10.63
2023-02-07T15:56:46.858Z,10.80
2023-02-07T15:59:17.465Z,12.63
2023-02-07T16:01:52.304Z,10.38
2023-02-07T16:04:20.121Z,10.30
2023-02-07T16:06:59.660Z,11.27
2023-02-07T16:09:37.512Z,10.93
2023-02-07T16:12:23.706Z,10.82
2023-02-07T16:14:51.361Z,10.68
2023-02-07T16:17:25.538Z,10.27
2023-02-07T16:19:53.370Z,10.07
2023-02-07T16:22:22.138Z,10.52
2023-02-07T16:24:51.570Z,10.70
2023-02-07T16:27:27.123Z,10.40
2023-02-07T16:29:54.925Z,9.73
2023-02-07T16:32:22.610Z,10.02
2023-02-07T16:34:59.375Z,9.85
2023-02-07T16:37:28.160Z,10.30
2023-02-07T16:39:55.777Z,9.85
2023-02-07T16:42:23.572Z,9.68
2023-02-07T16:44:51.174Z,9.65
2023-02-07T16:47:19.033Z,9.02
2023-02-07T16:49:47.220Z,10.23
2023-02-07T16:52:14.834Z,10.60
2023-02-07T16:54:43.159Z,9.02
2023-02-07T16:57:11.964Z,10.15
2023-02-07T16:59:39.744Z,9.60
2023-02-07T17:02:13.581Z,9.90
2023-02-07T17:04:41.207Z,9.27
2023-02-07T17:07:10.746Z,9.30
2023-02-07T17:09:38.346Z,9.65
2023-02-07T17:12:07.243Z,9.10
2023-02-07T17:14:36.289Z,9.60
2023-02-07T17:17:03.913Z,9.20
2023-02-07T17:19:31.537Z,10.35
2023-02-07T17:21:59.128Z,9.88
2023-02-07T17:24:26.734Z,9.23
2023-02-07T17:26:54.839Z,10.18
2023-02-07T17:29:22.545Z,9.77
2023-02-07T17:31:50.645Z,8.70
2023-02-07T17:34:18.342Z,8.63
2023-02-07T17:36:47.762Z,9.38
2023-02-07T17:39:16.040Z,8.85
2023-02-07T17:41:43.605Z,10.23
2023-02-07T17:44:11.168Z,8.77
2023-02-07T17:46:38.702Z,8.35
2023-02-07T17:49:07.269Z,9.05
2023-02-07T17:51:34.816Z,8.85
2023-02-07T17:54:02.394Z,8.63
2023-02-07T17:56:31.563Z,8.32
2023-02-07T17:59:03.588Z,8.95
2023-02-07T18:01:32.258Z,9.45
2023-02-07T18:04:00.010Z,9.40
2023-02-07T18:06:28.746Z,8.52
2023-02-07T18:08:58.464Z,9.15
2023-02-07T18:11:27.185Z,9.20
2023-02-07T18:13:56.719Z,8.80
2023-02-07T18:16:25.415Z,9.32
2023-02-07T18:18:53.511Z,8.90
2023-02-07T18:21:21.107Z,8.60
2023-02-07T18:23:48.773Z,8.63
2023-02-07T18:26:16.747Z,8.90
2023-02-07T18:28:44.349Z,8.63
2023-02-07T18:31:16.946Z,9.52
2023-02-07T18:33:44.650Z,8.52
2023-02-07T18:36:12.444Z,9.70
2023-02-07T18:38:40.054Z,9.35
2023-02-07T18:41:09.836Z,9.82
2023-02-07T18:43:38.053Z,9.02
2023-02-07T18:46:12.561Z,9.38
2023-02-07T18:48:40.134Z,8.80
2023-02-07T18:51:08.305Z,9.75
2023-02-07T18:53:35.875Z,8.75
2023-02-07T18:56:07.033Z,8.85
2023-02-07T18:58:35.268Z,9.48
2023-02-07T19:01:04.208Z,8.50
2023-02-07T19:03:31.960Z,9.05
2023-02-07T19:06:00.566Z,8.85
2023-02-07T19:08:28.262Z,8.88
2023-02-07T19:10:56.750Z,8.30
2023-02-07T19:13:24.974Z,8.65
2023-02-07T19:15:52.745Z,8.65
2023-02-07T19:18:20.309Z,8.40
2023-02-07T19:20:47.998Z,8.88
2023-02-07T19:23:15.538Z,8.93
2023-02-07T19:25:47.373Z,8.85
2023-02-07T19:28:15.318Z,8.10
2023-02-07T19:30:43.405Z,9.07
2023-02-07T19:33:11.023Z,8.60
2023-02-07T19:35:38.592Z,8.63
2023-02-07T19:38:06.142Z,8.60
2023-02-07T19:40:33.703Z,8.63
2023-02-07T19:43:01.396Z,8.60
2023-02-07T19:45:28.966Z,8.48
2023-02-07T19:47:56.524Z,7.43
2023-02-07T19:50:26.070Z,7.97
2023-02-07T19:52:54.355Z,8.80
2023-02-07T19:55:22.047Z,8.35
2023-02-07T19:57:49.621Z,8.35
2023-02-07T20:00:17.197Z,7.90
2023-02-07T20:02:44.747Z,8.77
2023-02-07T20:05:12.376Z,9.30
2023-02-07T20:07:39.952Z,8.88
2023-02-07T20:10:07.722Z,8.95
2023-02-07T20:12:35.274Z,9.10
2023-02-07T20:15:02.789Z,9.13
2023-02-07T20:17:30.378Z,7.78
2023-02-07T20:19:57.964Z,9.20
2023-02-07T20:22:25.481Z,9.95
2023-02-07T20:24:53.025Z,8.38
2023-02-07T20:27:20.530Z,9.25
2023-02-07T20:29:51.230Z,8.63
2023-02-07T20:32:18.918Z,9.77
2023-02-07T20:34:46.469Z,8.65
2023-02-07T20:37:14.037Z,8.88
2023-02-07T20:39:41.585Z,8.65
2023-02-07T20:42:09.254Z,9.07
2023-02-07T20:44:36.798Z,7.82
2023-02-07T20:47:04.799Z,8.73
2023-02-07T20:49:32.773Z,8.85
2023-02-07T20:52:00.469Z,9.32
2023-02-07T20:54:29.306Z,8.57
2023-02-07T20:56:57.684Z,8.90
2023-02-07T20:59:29.687Z,8.75
2023-02-07T21:01:57.317Z,9.02
2023-02-07T21:04:25.125Z,9.48
2023-02-07T21:06:52.922Z,8.68
2023-02-07T21:09:20.676Z,8.32
2023-02-07T21:11:50.112Z,9.23
2023-02-07T21:14:19.430Z,8.93
2023-02-07T21:16:47.038Z,9.18
2023-02-07T21:19:15.217Z,7.75
2023-02-07T21:21:42.896Z,8.38
2023-02-07T21:24:10.569Z,8.38
2023-02-07T21:26:38.132Z,7.90
2023-02-07T21:29:06.256Z,8.40
2023-02-07T21:31:35.885Z,8.57
2023-02-07T21:34:04.224Z,7.65
2023-02-07T21:36:32.787Z,8.32
2023-02-07T21:39:04.229Z,9.02
2023-02-07T21:41:32.176Z,8.88
2023-02-07T21:43:59.782Z,8.80
2023-02-07T21:46:28.699Z,8.07
2023-02-07T21:49:03.371Z,8.65
2023-02-07T21:51:31.915Z,8.30
2023-02-07T21:54:00.366Z,8.02
2023-02-07T21:56:29.758Z,8.80
2023-02-07T21:58:58.753Z,8.85
2023-02-07T22:01:26.788Z,8.50
2023-02-07T22:03:55.738Z,8.32
2023-02-07T22:06:23.719Z,9.18
2023-02-07T22:08:52.506Z,8.50
2023-02-07T22:11:21.430Z,9.15
2023-02-07T22:13:49.936Z,8.45
2023-02-07T22:16:18.238Z,8.32
2023-02-07T22:18:46.038Z,8.75
2023-02-07T22:21:17.895Z,7.90
2023-02-07T22:23:45.500Z,7.30
2023-02-07T22:26:13.504Z,7.90
2023-02-07T22:28:41.878Z,7.80
2023-02-07T22:31:13.451Z,8.35
2023-02-07T22:33:41.079Z,8.00
2023-02-07T22:36:19.446Z,7.53
2023-02-07T22:38:47.789Z,7.97
2023-02-07T22:41:15.803Z,7.75
2023-02-07T22:43:43.636Z,7.82
2023-02-07T22:46:15.633Z,8.07
2023-02-07T22:48:43.680Z,8.15
2023-02-07T22:51:15.912Z,8.38
2023-02-07T22:53:43.480Z,8.27
2023-02-07T22:56:11.180Z,7.85
2023-02-07T22:58:38.955Z,7.53
2023-02-07T23:01:06.934Z,8.05
2023-02-07T23:03:35.029Z,7.95
2023-02-07T23:06:05.979Z,8.00
2023-02-07T23:08:33.664Z,8.65
2023-02-07T23:11:01.224Z,7.65
2023-02-07T23:13:28.775Z,7.93
2023-02-07T23:15:56.379Z,8.10
2023-02-07T23:18:25.344Z,8.23
2023-02-07T23:20:53.455Z,7.88
2023-02-07T23:23:23.175Z,7.95
2023-02-07T23:25:50.701Z,8.07
2023-02-07T23:28:18.326Z,8.55
2023-02-07T23:30:46.032Z,8.13
2023-02-07T23:33:13.692Z,8.32
2023-02-07T23:35:41.309Z,8.40
2023-02-07T23:38:08.847Z,8.68
2023-02-07T23:40:36.400Z,8.73
2023-02-07T23:43:03.918Z,8.05
2023-02-07T23:45:31.450Z,8.90
2023-02-07T23:47:59.983Z,8.95
2023-02-07T23:50:29.161Z,9.10
2023-02-07T23:52:56.701Z,8.88
2023-02-07T23:55:24.284Z,9.20
2023-02-07T23:57:51.863Z,9.05
